sensor_id;sensor_type;location;lat;lon;timestamp;temperature;humidity
74178;DHT22;62540;48.456;-4.456;2022-10-31T00:02:02;16.99;78.67
74178;DHT22;62540;48.456;-4.456;2022-10-31T00:04:27;16.97;78.92
74178;DHT22;62540;48.456;-4.456;2022-10-31T00:06:52;16.89;79.06
74178;DHT22;62540;48.456;-4.456;2022-10-31T00:09:18;16.89;79.15
74178;DHT22;62540;48.456;-4.456;2022-10-31T00:11:43;16.91;79.05
74178;DHT22;62540;48.456;-4.456;2022-10-31T00:14:09;16.91;78.89
74178;DHT22;62540;48.456;-4.456;2022-10-31T00:16:34;16.93;78.98
74178;DHT22;62540;48.456;-4.456;2022-10-31T00:19:02;16.91;79.17
74178;DHT22;62540;48.456;-4.456;2022-10-31T00:21:29;16.93;79.03
74178;DHT22;62540;48.456;-4.456;2022-10-31T00:23:57;16.94;78.99
74178;DHT22;62540;48.456;-4.456;2022-10-31T00:26:22;16.94;79.28
74178;DHT22;62540;48.456;-4.456;2022-10-31T00:28:48;16.93;79.34
74178;DHT22;62540;48.456;-4.456;2022-10-31T00:31:14;16.96;79.20
74178;DHT22;62540;48.456;-4.456;2022-10-31T00:33:40;16.94;79.11
74178;DHT22;62540;48.456;-4.456;2022-10-31T00:36:10;16.97;78.95
74178;DHT22;62540;48.456;-4.456;2022-10-31T00:38:36;16.99;79.00
74178;DHT22;62540;48.456;-4.456;2022-10-31T00:41:01;16.97;79.22
74178;DHT22;62540;48.456;-4.456;2022-10-31T00:43:27;16.96;79.32
74178;DHT22;62540;48.456;-4.456;2022-10-31T00:45:52;16.97;79.20
74178;DHT22;62540;48.456;-4.456;2022-10-31T00:48:17;16.97;79.21
74178;DHT22;62540;48.456;-4.456;2022-10-31T00:50:43;17.00;79.20
74178;DHT22;62540;48.456;-4.456;2022-10-31T00:53:08;16.99;79.01
74178;DHT22;62540;48.456;-4.456;2022-10-31T00:55:34;16.99;78.95
74178;DHT22;62540;48.456;-4.456;2022-10-31T00:57:59;16.96;79.00
74178;DHT22;62540;48.456;-4.456;2022-10-31T01:00:25;16.96;78.96
74178;DHT22;62540;48.456;-4.456;2022-10-31T01:02:50;16.94;78.79
74178;DHT22;62540;48.456;-4.456;2022-10-31T01:05:16;16.96;78.70
74178;DHT22;62540;48.456;-4.456;2022-10-31T01:07:42;16.91;78.78
74178;DHT22;62540;48.456;-4.456;2022-10-31T01:10:09;16.89;79.20
74178;DHT22;62540;48.456;-4.456;2022-10-31T01:12:43;16.89;79.10
74178;DHT22;62540;48.456;-4.456;2022-10-31T01:15:11;16.93;79.08
74178;DHT22;62540;48.456;-4.456;2022-10-31T01:17:37;16.94;78.86
74178;DHT22;62540;48.456;-4.456;2022-10-31T01:20:04;16.93;78.89
74178;DHT22;62540;48.456;-4.456;2022-10-31T01:22:30;16.94;78.99
74178;DHT22;62540;48.456;-4.456;2022-10-31T01:24:56;16.94;78.67
74178;DHT22;62540;48.456;-4.456;2022-10-31T01:27:21;16.96;78.54
74178;DHT22;62540;48.456;-4.456;2022-10-31T01:29:46;16.94;78.54
74178;DHT22;62540;48.456;-4.456;2022-10-31T01:32:12;16.96;78.62
74178;DHT22;62540;48.456;-4.456;2022-10-31T01:34:37;16.91;78.73
74178;DHT22;62540;48.456;-4.456;2022-10-31T01:37:03;16.93;78.76
74178;DHT22;62540;48.456;-4.456;2022-10-31T01:39:28;16.89;78.95
74178;DHT22;62540;48.456;-4.456;2022-10-31T01:41:54;16.83;78.78
74178;DHT22;62540;48.456;-4.456;2022-10-31T01:46:46;16.76;78.94
74178;DHT22;62540;48.456;-4.456;2022-10-31T01:49:39;16.70;79.09
74178;DHT22;62540;48.456;-4.456;2022-10-31T01:54:34;16.68;79.36
74178;DHT22;62540;48.456;-4.456;2022-10-31T01:57:02;16.68;79.35
74178;DHT22;62540;48.456;-4.456;2022-10-31T01:59:30;16.70;79.33
74178;DHT22;62540;48.456;-4.456;2022-10-31T02:01:57;16.72;79.11
74178;DHT22;62540;48.456;-4.456;2022-10-31T02:04:24;16.75;79.34
74178;DHT22;62540;48.456;-4.456;2022-10-31T02:07:21;16.75;79.28
74178;DHT22;62540;48.456;-4.456;2022-10-31T02:09:47;16.80;79.10
74178;DHT22;62540;48.456;-4.456;2022-10-31T02:12:15;16.76;79.16
74178;DHT22;62540;48.456;-4.456;2022-10-31T02:14:41;16.80;79.05
74178;DHT22;62540;48.456;-4.456;2022-10-31T02:17:07;16.80;79.34
74178;DHT22;62540;48.456;-4.456;2022-10-31T02:20:09;16.80;79.34
74178;DHT22;62540;48.456;-4.456;2022-10-31T02:28:33;16.73;79.10
74178;DHT22;62540;48.456;-4.456;2022-10-31T02:44:36;16.58;79.09
74178;DHT22;62540;48.456;-4.456;2022-10-31T02:47:04;16.56;78.95
74178;DHT22;62540;48.456;-4.456;2022-10-31T02:49:55;16.53;79.11
74178;DHT22;62540;48.456;-4.456;2022-10-31T02:52:28;16.48;79.05
74178;DHT22;62540;48.456;-4.456;2022-10-31T02:54:54;16.44;79.20
74178;DHT22;62540;48.456;-4.456;2022-10-31T02:57:28;16.41;79.20
74178;DHT22;62540;48.456;-4.456;2022-10-31T03:00:00;16.41;79.32
74178;DHT22;62540;48.456;-4.456;2022-10-31T03:07:58;16.33;79.40
74178;DHT22;62540;48.456;-4.456;2022-10-31T03:13:17;16.32;79.35
74178;DHT22;62540;48.456;-4.456;2022-10-31T03:15:45;16.33;79.17
74178;DHT22;62540;48.456;-4.456;2022-10-31T03:18:21;16.32;79.51
74178;DHT22;62540;48.456;-4.456;2022-10-31T03:20:52;16.29;79.37
74178;DHT22;62540;48.456;-4.456;2022-10-31T03:23:22;16.33;79.37
74178;DHT22;62540;48.456;-4.456;2022-10-31T03:25:48;16.35;79.36
74178;DHT22;62540;48.456;-4.456;2022-10-31T03:28:18;16.36;79.15
74178;DHT22;62540;48.456;-4.456;2022-10-31T03:30:45;16.38;79.05
74178;DHT22;62540;48.456;-4.456;2022-10-31T03:33:15;16.40;78.90
74178;DHT22;62540;48.456;-4.456;2022-10-31T03:35:45;16.35;79.12
74178;DHT22;62540;48.456;-4.456;2022-10-31T03:38:13;16.33;79.06
74178;DHT22;62540;48.456;-4.456;2022-10-31T03:40:41;16.31;78.92
74178;DHT22;62540;48.456;-4.456;2022-10-31T03:43:13;16.28;79.01
74178;DHT22;62540;48.456;-4.456;2022-10-31T03:45:44;16.25;78.89
74178;DHT22;62540;48.456;-4.456;2022-10-31T03:48:10;16.29;78.89
74178;DHT22;62540;48.456;-4.456;2022-10-31T03:50:52;16.22;79.06
74178;DHT22;62540;48.456;-4.456;2022-10-31T03:53:30;16.22;78.83
74178;DHT22;62540;48.456;-4.456;2022-10-31T03:56:18;16.22;78.85
74178;DHT22;62540;48.456;-4.456;2022-10-31T03:58:49;16.24;78.66
74178;DHT22;62540;48.456;-4.456;2022-10-31T04:01:21;16.20;78.71
74178;DHT22;62540;48.456;-4.456;2022-10-31T04:03:48;16.21;78.88
74178;DHT22;62540;48.456;-4.456;2022-10-31T04:06:16;16.17;78.88
74178;DHT22;62540;48.456;-4.456;2022-10-31T04:08:56;16.14;78.95
74178;DHT22;62540;48.456;-4.456;2022-10-31T04:11:29;16.08;79.24
74178;DHT22;62540;48.456;-4.456;2022-10-31T04:13:56;16.10;79.40
74178;DHT22;62540;48.456;-4.456;2022-10-31T04:16:24;16.01;79.68
74178;DHT22;62540;48.456;-4.456;2022-10-31T04:18:50;15.97;79.77
74178;DHT22;62540;48.456;-4.456;2022-10-31T04:21:15;15.93;80.00
74178;DHT22;62540;48.456;-4.456;2022-10-31T04:23:41;15.94;79.66
74178;DHT22;62540;48.456;-4.456;2022-10-31T04:26:09;15.90;80.18
74178;DHT22;62540;48.456;-4.456;2022-10-31T04:28:35;15.90;79.91
74178;DHT22;62540;48.456;-4.456;2022-10-31T04:31:01;15.94;79.68
74178;DHT22;62540;48.456;-4.456;2022-10-31T04:33:26;15.93;79.75
74178;DHT22;62540;48.456;-4.456;2022-10-31T04:35:51;15.87;80.20
74178;DHT22;62540;48.456;-4.456;2022-10-31T04:38:17;15.89;79.93
74178;DHT22;62540;48.456;-4.456;2022-10-31T04:40:42;15.90;79.73
74178;DHT22;62540;48.456;-4.456;2022-10-31T04:43:07;15.87;79.86
74178;DHT22;62540;48.456;-4.456;2022-10-31T04:45:33;15.86;79.62
74178;DHT22;62540;48.456;-4.456;2022-10-31T04:47:58;15.83;79.78
74178;DHT22;62540;48.456;-4.456;2022-10-31T04:50:24;15.84;79.66
74178;DHT22;62540;48.456;-4.456;2022-10-31T04:52:49;15.80;79.59
74178;DHT22;62540;48.456;-4.456;2022-10-31T04:55:15;15.84;79.37
74178;DHT22;62540;48.456;-4.456;2022-10-31T04:57:44;15.83;79.37
74178;DHT22;62540;48.456;-4.456;2022-10-31T05:00:11;15.82;79.26
74178;DHT22;62540;48.456;-4.456;2022-10-31T05:02:45;15.79;79.20
74178;DHT22;62540;48.456;-4.456;2022-10-31T05:05:12;15.83;79.06
74178;DHT22;62540;48.456;-4.456;2022-10-31T05:07:42;15.80;79.07
74178;DHT22;62540;48.456;-4.456;2022-10-31T05:10:09;15.79;79.09
74178;DHT22;62540;48.456;-4.456;2022-10-31T05:12:35;15.80;79.15
74178;DHT22;62540;48.456;-4.456;2022-10-31T05:15:01;15.80;79.12
74178;DHT22;62540;48.456;-4.456;2022-10-31T05:17:26;15.79;78.96
74178;DHT22;62540;48.456;-4.456;2022-10-31T05:19:51;15.83;78.85
74178;DHT22;62540;48.456;-4.456;2022-10-31T05:22:17;15.84;78.72
74178;DHT22;62540;48.456;-4.456;2022-10-31T05:24:42;15.83;78.67
74178;DHT22;62540;48.456;-4.456;2022-10-31T05:27:07;15.84;78.56
74178;DHT22;62540;48.456;-4.456;2022-10-31T05:29:33;15.82;78.52
74178;DHT22;62540;48.456;-4.456;2022-10-31T05:31:59;15.84;78.37
74178;DHT22;62540;48.456;-4.456;2022-10-31T05:34:24;15.90;78.25
74178;DHT22;62540;48.456;-4.456;2022-10-31T05:36:49;15.87;78.25
74178;DHT22;62540;48.456;-4.456;2022-10-31T05:39:15;15.89;78.29
74178;DHT22;62540;48.456;-4.456;2022-10-31T05:41:40;15.94;78.21
74178;DHT22;62540;48.456;-4.456;2022-10-31T05:44:06;15.93;78.17
74178;DHT22;62540;48.456;-4.456;2022-10-31T05:46:31;15.96;78.10
74178;DHT22;62540;48.456;-4.456;2022-10-31T05:48:57;15.93;78.27
74178;DHT22;62540;48.456;-4.456;2022-10-31T05:51:22;15.93;78.22
74178;DHT22;62540;48.456;-4.456;2022-10-31T05:53:47;15.89;78.39
74178;DHT22;62540;48.456;-4.456;2022-10-31T05:56:13;15.87;78.42
74178;DHT22;62540;48.456;-4.456;2022-10-31T05:58:38;15.86;78.44
74178;DHT22;62540;48.456;-4.456;2022-10-31T06:01:04;15.83;78.46
74178;DHT22;62540;48.456;-4.456;2022-10-31T06:03:30;15.83;78.39
74178;DHT22;62540;48.456;-4.456;2022-10-31T06:05:56;15.83;78.43
74178;DHT22;62540;48.456;-4.456;2022-10-31T06:08:21;15.80;78.50
74178;DHT22;62540;48.456;-4.456;2022-10-31T06:10:46;15.83;78.45
74178;DHT22;62540;48.456;-4.456;2022-10-31T06:13:12;15.76;78.97
74178;DHT22;62540;48.456;-4.456;2022-10-31T06:15:37;15.70;79.11
74178;DHT22;62540;48.456;-4.456;2022-10-31T06:18:05;15.69;79.18
74178;DHT22;62540;48.456;-4.456;2022-10-31T06:20:32;15.69;79.04
74178;DHT22;62540;48.456;-4.456;2022-10-31T06:22:57;15.66;79.31
74178;DHT22;62540;48.456;-4.456;2022-10-31T06:25:23;15.66;79.01
74178;DHT22;62540;48.456;-4.456;2022-10-31T06:27:48;15.63;79.35
74178;DHT22;62540;48.456;-4.456;2022-10-31T06:30:14;15.63;79.06
74178;DHT22;62540;48.456;-4.456;2022-10-31T06:32:40;15.66;78.95
74178;DHT22;62540;48.456;-4.456;2022-10-31T06:35:05;15.67;78.79
74178;DHT22;62540;48.456;-4.456;2022-10-31T06:37:31;15.69;78.85
74178;DHT22;62540;48.456;-4.456;2022-10-31T06:39:56;15.62;78.99
74178;DHT22;62540;48.456;-4.456;2022-10-31T06:42:22;15.64;79.15
74178;DHT22;62540;48.456;-4.456;2022-10-31T06:44:47;15.64;78.95
74178;DHT22;62540;48.456;-4.456;2022-10-31T06:47:12;15.67;78.90
74178;DHT22;62540;48.456;-4.456;2022-10-31T06:49:38;15.64;79.08
74178;DHT22;62540;48.456;-4.456;2022-10-31T06:52:03;15.62;79.07
74178;DHT22;62540;48.456;-4.456;2022-10-31T06:54:29;15.63;79.27
74178;DHT22;62540;48.456;-4.456;2022-10-31T06:56:55;15.60;79.31
74178;DHT22;62540;48.456;-4.456;2022-10-31T06:59:20;15.54;79.32
74178;DHT22;62540;48.456;-4.456;2022-10-31T07:01:46;15.53;79.45
74178;DHT22;62540;48.456;-4.456;2022-10-31T07:04:11;15.54;79.40
74178;DHT22;62540;48.456;-4.456;2022-10-31T07:06:37;15.50;79.40
74178;DHT22;62540;48.456;-4.456;2022-10-31T07:09:04;15.50;79.30
74178;DHT22;62540;48.456;-4.456;2022-10-31T07:11:29;15.46;79.61
74178;DHT22;62540;48.456;-4.456;2022-10-31T07:13:55;15.46;79.74
74178;DHT22;62540;48.456;-4.456;2022-10-31T07:16:20;15.45;79.54
74178;DHT22;62540;48.456;-4.456;2022-10-31T07:18:46;15.46;79.52
74178;DHT22;62540;48.456;-4.456;2022-10-31T07:21:11;15.43;79.64
74178;DHT22;62540;48.456;-4.456;2022-10-31T07:23:37;15.47;79.64
74178;DHT22;62540;48.456;-4.456;2022-10-31T07:26:02;15.45;79.83
74178;DHT22;62540;48.456;-4.456;2022-10-31T07:28:28;15.47;79.63
74178;DHT22;62540;48.456;-4.456;2022-10-31T07:30:57;15.46;79.68
74178;DHT22;62540;48.456;-4.456;2022-10-31T07:33:24;15.50;79.65
74178;DHT22;62540;48.456;-4.456;2022-10-31T07:35:51;15.56;79.51
74178;DHT22;62540;48.456;-4.456;2022-10-31T07:38:16;15.63;79.28
74178;DHT22;62540;48.456;-4.456;2022-10-31T07:40:42;15.70;79.11
74178;DHT22;62540;48.456;-4.456;2022-10-31T07:43:09;15.74;78.97
74178;DHT22;62540;48.456;-4.456;2022-10-31T07:45:35;15.79;78.93
74178;DHT22;62540;48.456;-4.456;2022-10-31T07:48:01;15.89;78.89
74178;DHT22;62540;48.456;-4.456;2022-10-31T07:50:31;16.04;78.57
74178;DHT22;62540;48.456;-4.456;2022-10-31T07:53:05;16.22;78.18
74178;DHT22;62540;48.456;-4.456;2022-10-31T07:55:31;16.40;77.49
74178;DHT22;62540;48.456;-4.456;2022-10-31T07:58:04;16.45;77.20
74178;DHT22;62540;48.456;-4.456;2022-10-31T08:00:31;16.61;77.35
74178;DHT22;62540;48.456;-4.456;2022-10-31T08:03:01;16.76;77.21
74178;DHT22;62540;48.456;-4.456;2022-10-31T08:05:27;16.86;76.73
74178;DHT22;62540;48.456;-4.456;2022-10-31T08:07:53;17.06;76.30
74178;DHT22;62540;48.456;-4.456;2022-10-31T08:10:19;17.19;75.96
74178;DHT22;62540;48.456;-4.456;2022-10-31T08:12:44;17.47;75.30
74178;DHT22;62540;48.456;-4.456;2022-10-31T08:15:10;17.77;74.28
74178;DHT22;62540;48.456;-4.456;2022-10-31T08:17:36;17.86;73.40
74178;DHT22;62540;48.456;-4.456;2022-10-31T08:20:03;17.86;73.18
74178;DHT22;62540;48.456;-4.456;2022-10-31T08:22:28;17.82;72.80
74178;DHT22;62540;48.456;-4.456;2022-10-31T08:24:54;17.65;73.39
74178;DHT22;62540;48.456;-4.456;2022-10-31T08:27:19;17.49;73.51
74178;DHT22;62540;48.456;-4.456;2022-10-31T08:29:45;17.32;74.11
74178;DHT22;62540;48.456;-4.456;2022-10-31T08:32:10;17.27;74.74
74178;DHT22;62540;48.456;-4.456;2022-10-31T08:34:35;17.23;74.56
74178;DHT22;62540;48.456;-4.456;2022-10-31T08:37:01;17.21;74.65
74178;DHT22;62540;48.456;-4.456;2022-10-31T08:39:26;17.19;74.65
74178;DHT22;62540;48.456;-4.456;2022-10-31T08:41:51;17.14;74.94
74178;DHT22;62540;48.456;-4.456;2022-10-31T08:44:17;17.16;75.03
74178;DHT22;62540;48.456;-4.456;2022-10-31T08:46:42;17.07;74.65
74178;DHT22;62540;48.456;-4.456;2022-10-31T08:49:08;17.00;74.60
74178;DHT22;62540;48.456;-4.456;2022-10-31T08:51:33;16.91;74.90
74178;DHT22;62540;48.456;-4.456;2022-10-31T08:53:58;16.91;75.23
74178;DHT22;62540;48.456;-4.456;2022-10-31T08:56:25;16.99;74.67
74178;DHT22;62540;48.456;-4.456;2022-10-31T08:58:53;17.16;74.81
74178;DHT22;62540;48.456;-4.456;2022-10-31T09:01:18;17.35;74.33
74178;DHT22;62540;48.456;-4.456;2022-10-31T09:03:44;17.40;73.61
74178;DHT22;62540;48.456;-4.456;2022-10-31T09:06:09;17.57;73.00
74178;DHT22;62540;48.456;-4.456;2022-10-31T09:08:35;17.82;72.35
74178;DHT22;62540;48.456;-4.456;2022-10-31T09:11:01;18.02;72.35
74178;DHT22;62540;48.456;-4.456;2022-10-31T09:13:27;18.27;71.31
74178;DHT22;62540;48.456;-4.456;2022-10-31T09:15:52;18.47;69.54
74178;DHT22;62540;48.456;-4.456;2022-10-31T09:18:22;18.54;69.37
74178;DHT22;62540;48.456;-4.456;2022-10-31T09:20:49;18.78;70.60
74178;DHT22;62540;48.456;-4.456;2022-10-31T09:23:17;18.98;68.62
74178;DHT22;62540;48.456;-4.456;2022-10-31T09:25:43;19.04;68.24
74178;DHT22;62540;48.456;-4.456;2022-10-31T09:28:11;19.11;67.84
74178;DHT22;62540;48.456;-4.456;2022-10-31T09:30:37;19.30;67.48
74178;DHT22;62540;48.456;-4.456;2022-10-31T09:33:05;19.37;68.18
74178;DHT22;62540;48.456;-4.456;2022-10-31T09:35:31;19.50;67.11
74178;DHT22;62540;48.456;-4.456;2022-10-31T09:37:59;19.59;66.47
74178;DHT22;62540;48.456;-4.456;2022-10-31T09:40:31;19.70;64.92
74178;DHT22;62540;48.456;-4.456;2022-10-31T09:46:01;19.77;65.04
74178;DHT22;62540;48.456;-4.456;2022-10-31T09:51:30;19.94;65.18
74178;DHT22;62540;48.456;-4.456;2022-10-31T09:54:05;19.94;63.96
74178;DHT22;62540;48.456;-4.456;2022-10-31T09:56:34;19.94;61.82
74178;DHT22;62540;48.456;-4.456;2022-10-31T09:59:02;19.98;63.02
74178;DHT22;62540;48.456;-4.456;2022-10-31T10:06:54;19.98;63.27
74178;DHT22;62540;48.456;-4.456;2022-10-31T10:09:25;19.74;61.59
74178;DHT22;62540;48.456;-4.456;2022-10-31T10:12:15;19.74;62.80
74178;DHT22;62540;48.456;-4.456;2022-10-31T10:18:04;19.56;62.61
74178;DHT22;62540;48.456;-4.456;2022-10-31T10:20:40;19.45;62.39
74178;DHT22;62540;48.456;-4.456;2022-10-31T10:28:37;19.29;63.11
74178;DHT22;62540;48.456;-4.456;2022-10-31T10:31:10;19.39;62.51
74178;DHT22;62540;48.456;-4.456;2022-10-31T10:33:44;19.45;63.03
74178;DHT22;62540;48.456;-4.456;2022-10-31T10:36:18;19.39;62.74
74178;DHT22;62540;48.456;-4.456;2022-10-31T10:38:54;19.32;62.60
74178;DHT22;62540;48.456;-4.456;2022-10-31T10:41:23;19.33;63.61
74178;DHT22;62540;48.456;-4.456;2022-10-31T10:43:50;19.40;63.65
74178;DHT22;62540;48.456;-4.456;2022-10-31T10:54:13;19.63;62.73
74178;DHT22;62540;48.456;-4.456;2022-10-31T10:59:22;19.66;63.09
74178;DHT22;62540;48.456;-4.456;2022-10-31T11:01:50;19.67;62.94
74178;DHT22;62540;48.456;-4.456;2022-10-31T11:04:34;19.56;62.13
74178;DHT22;62540;48.456;-4.456;2022-10-31T11:09:25;19.69;62.90
74178;DHT22;62540;48.456;-4.456;2022-10-31T11:11:50;19.75;63.21
74178;DHT22;62540;48.456;-4.456;2022-10-31T11:14:17;19.78;63.30
74178;DHT22;62540;48.456;-4.456;2022-10-31T11:16:45;19.77;62.36
74178;DHT22;62540;48.456;-4.456;2022-10-31T11:21:40;19.56;63.67
74178;DHT22;62540;48.456;-4.456;2022-10-31T11:26:34;19.64;63.97
74178;DHT22;62540;48.456;-4.456;2022-10-31T11:29:00;19.73;63.29
74178;DHT22;62540;48.456;-4.456;2022-10-31T11:31:28;19.73;63.48
74178;DHT22;62540;48.456;-4.456;2022-10-31T11:36:29;19.83;63.48
74178;DHT22;62540;48.456;-4.456;2022-10-31T11:38:55;19.85;63.35
74178;DHT22;62540;48.456;-4.456;2022-10-31T11:41:32;19.95;63.33
74178;DHT22;62540;48.456;-4.456;2022-10-31T11:44:04;19.95;63.48
74178;DHT22;62540;48.456;-4.456;2022-10-31T11:46:32;19.95;63.41
74178;DHT22;62540;48.456;-4.456;2022-10-31T11:48:59;20.07;63.97
74178;DHT22;62540;48.456;-4.456;2022-10-31T11:51:30;20.24;63.61
74178;DHT22;62540;48.456;-4.456;2022-10-31T11:53:58;20.26;63.34
74178;DHT22;62540;48.456;-4.456;2022-10-31T11:56:24;20.28;63.17
74178;DHT22;62540;48.456;-4.456;2022-10-31T11:59:02;20.42;63.80
74178;DHT22;62540;48.456;-4.456;2022-10-31T12:01:30;20.45;62.94
74178;DHT22;62540;48.456;-4.456;2022-10-31T12:04:07;20.41;63.08
74178;DHT22;62540;48.456;-4.456;2022-10-31T12:06:35;20.49;63.67
74178;DHT22;62540;48.456;-4.456;2022-10-31T12:09:02;20.46;63.18
74178;DHT22;62540;48.456;-4.456;2022-10-31T12:11:55;20.42;63.90
74178;DHT22;62540;48.456;-4.456;2022-10-31T12:17:43;20.18;64.49
74178;DHT22;62540;48.456;-4.456;2022-10-31T12:31:52;19.95;66.80
74178;DHT22;62540;48.456;-4.456;2022-10-31T12:48:41;19.53;68.80
74178;DHT22;62540;48.456;-4.456;2022-10-31T12:51:19;19.49;69.06
74178;DHT22;62540;48.456;-4.456;2022-10-31T12:56:42;19.45;69.76
74178;DHT22;62540;48.456;-4.456;2022-10-31T12:59:33;19.40;69.98
74178;DHT22;62540;48.456;-4.456;2022-10-31T13:02:09;19.36;70.29
74178;DHT22;62540;48.456;-4.456;2022-10-31T13:04:44;19.33;70.42
74178;DHT22;62540;48.456;-4.456;2022-10-31T13:07:20;19.32;71.02
74178;DHT22;62540;48.456;-4.456;2022-10-31T13:10:01;19.29;71.10
74178;DHT22;62540;48.456;-4.456;2022-10-31T13:12:31;19.30;70.95
74178;DHT22;62540;48.456;-4.456;2022-10-31T13:15:01;19.33;71.07
74178;DHT22;62540;48.456;-4.456;2022-10-31T13:17:34;19.26;71.48
74178;DHT22;62540;48.456;-4.456;2022-10-31T13:20:34;19.25;71.66
74178;DHT22;62540;48.456;-4.456;2022-10-31T13:23:24;19.32;71.73
74178;DHT22;62540;48.456;-4.456;2022-10-31T13:25:54;19.35;71.89
74178;DHT22;62540;48.456;-4.456;2022-10-31T13:31:04;19.35;71.75
74178;DHT22;62540;48.456;-4.456;2022-10-31T13:33:34;19.32;72.23
74178;DHT22;62540;48.456;-4.456;2022-10-31T13:38:51;19.19;72.77
74178;DHT22;62540;48.456;-4.456;2022-10-31T13:41:42;19.23;72.96
74178;DHT22;62540;48.456;-4.456;2022-10-31T13:44:21;19.27;72.84
74178;DHT22;62540;48.456;-4.456;2022-10-31T13:46:49;19.26;73.01
74178;DHT22;62540;48.456;-4.456;2022-10-31T13:59:55;19.09;74.51
74178;DHT22;62540;48.456;-4.456;2022-10-31T14:02:30;19.02;74.87
74178;DHT22;62540;48.456;-4.456;2022-10-31T14:04:59;18.87;75.26
74178;DHT22;62540;48.456;-4.456;2022-10-31T14:07:26;18.91;75.51
74178;DHT22;62540;48.456;-4.456;2022-10-31T14:09:57;18.88;74.45
74178;DHT22;62540;48.456;-4.456;2022-10-31T14:12:29;18.91;75.48
74178;DHT22;62540;48.456;-4.456;2022-10-31T14:17:48;18.88;75.73
74178;DHT22;62540;48.456;-4.456;2022-10-31T14:22:40;18.77;75.52
74178;DHT22;62540;48.456;-4.456;2022-10-31T14:25:24;18.79;74.82
74178;DHT22;62540;48.456;-4.456;2022-10-31T14:27:50;18.75;74.86
74178;DHT22;62540;48.456;-4.456;2022-10-31T14:30:22;18.81;74.73
74178;DHT22;62540;48.456;-4.456;2022-10-31T14:32:52;18.85;74.37
74178;DHT22;62540;48.456;-4.456;2022-10-31T14:35:20;18.85;74.68
74178;DHT22;62540;48.456;-4.456;2022-10-31T14:48:49;18.89;73.85
74178;DHT22;62540;48.456;-4.456;2022-10-31T14:51:21;18.84;73.89
74178;DHT22;62540;48.456;-4.456;2022-10-31T14:53:53;18.84;74.22
74178;DHT22;62540;48.456;-4.456;2022-10-31T14:56:33;18.77;74.29
74178;DHT22;62540;48.456;-4.456;2022-10-31T14:59:03;18.71;74.49
74178;DHT22;62540;48.456;-4.456;2022-10-31T15:01:31;18.65;74.42
74178;DHT22;62540;48.456;-4.456;2022-10-31T15:04:02;18.58;74.70
74178;DHT22;62540;48.456;-4.456;2022-10-31T15:06:39;18.51;75.01
74178;DHT22;62540;48.456;-4.456;2022-10-31T15:09:05;18.43;75.59
74178;DHT22;62540;48.456;-4.456;2022-10-31T15:11:37;18.38;75.58
74178;DHT22;62540;48.456;-4.456;2022-10-31T15:14:21;18.34;75.62
74178;DHT22;62540;48.456;-4.456;2022-10-31T15:16:47;18.26;76.85
74178;DHT22;62540;48.456;-4.456;2022-10-31T15:19:17;18.03;77.50
74178;DHT22;62540;48.456;-4.456;2022-10-31T15:21:45;17.93;77.48
74178;DHT22;62540;48.456;-4.456;2022-10-31T15:24:13;17.81;77.36
74178;DHT22;62540;48.456;-4.456;2022-10-31T15:26:45;17.74;77.67
74178;DHT22;62540;48.456;-4.456;2022-10-31T15:29:13;17.57;78.15
74178;DHT22;62540;48.456;-4.456;2022-10-31T15:34:22;17.35;78.57
74178;DHT22;62540;48.456;-4.456;2022-10-31T15:36:50;17.28;78.57
74178;DHT22;62540;48.456;-4.456;2022-10-31T15:39:16;17.17;79.51
74178;DHT22;62540;48.456;-4.456;2022-10-31T15:46:55;17.09;79.84
74178;DHT22;62540;48.456;-4.456;2022-10-31T15:52:21;17.10;79.42
74178;DHT22;62540;48.456;-4.456;2022-10-31T15:54:53;17.11;79.21
74178;DHT22;62540;48.456;-4.456;2022-10-31T15:57:21;17.04;79.81
74178;DHT22;62540;48.456;-4.456;2022-10-31T15:59:48;17.00;79.70
74178;DHT22;62540;48.456;-4.456;2022-10-31T16:02:18;16.96;80.00
74178;DHT22;62540;48.456;-4.456;2022-10-31T16:04:56;17.04;79.86
74178;DHT22;62540;48.456;-4.456;2022-10-31T16:07:23;16.97;79.91
74178;DHT22;62540;48.456;-4.456;2022-10-31T16:12:20;16.93;80.02
74178;DHT22;62540;48.456;-4.456;2022-10-31T16:14:46;16.86;80.76
74178;DHT22;62540;48.456;-4.456;2022-10-31T16:17:14;16.84;80.32
74178;DHT22;62540;48.456;-4.456;2022-10-31T16:19:58;16.87;80.28
74178;DHT22;62540;48.456;-4.456;2022-10-31T16:22:46;16.86;80.26
74178;DHT22;62540;48.456;-4.456;2022-10-31T16:25:36;16.80;80.22
74178;DHT22;62540;48.456;-4.456;2022-10-31T16:28:12;16.77;80.18
74178;DHT22;62540;48.456;-4.456;2022-10-31T16:33:05;16.80;80.03
74178;DHT22;62540;48.456;-4.456;2022-10-31T16:35:45;16.82;80.13
74178;DHT22;62540;48.456;-4.456;2022-10-31T16:38:11;16.80;80.42
74178;DHT22;62540;48.456;-4.456;2022-10-31T16:40:38;16.75;80.55
74178;DHT22;62540;48.456;-4.456;2022-10-31T16:43:03;16.79;80.99
74178;DHT22;62540;48.456;-4.456;2022-10-31T16:45:30;16.87;80.03
74178;DHT22;62540;48.456;-4.456;2022-10-31T16:48:06;16.90;79.33
74178;DHT22;62540;48.456;-4.456;2022-10-31T16:50:32;16.91;79.27
74178;DHT22;62540;48.456;-4.456;2022-10-31T16:52:57;16.91;79.14
74178;DHT22;62540;48.456;-4.456;2022-10-31T16:55:23;16.96;77.95
74178;DHT22;62540;48.456;-4.456;2022-10-31T16:57:51;16.91;77.39
74178;DHT22;62540;48.456;-4.456;2022-10-31T17:00:25;16.86;77.22
74178;DHT22;62540;48.456;-4.456;2022-10-31T17:02:53;16.84;76.78
74178;DHT22;62540;48.456;-4.456;2022-10-31T17:05:21;16.82;76.39
74178;DHT22;62540;48.456;-4.456;2022-10-31T17:07:47;16.76;76.66
74178;DHT22;62540;48.456;-4.456;2022-10-31T17:10:14;16.76;76.61
74178;DHT22;62540;48.456;-4.456;2022-10-31T17:12:43;16.72;76.31
74178;DHT22;62540;48.456;-4.456;2022-10-31T17:15:31;16.69;76.40
74178;DHT22;62540;48.456;-4.456;2022-10-31T17:17:58;16.68;76.09
74178;DHT22;62540;48.456;-4.456;2022-10-31T17:20:26;16.63;76.15
74178;DHT22;62540;48.456;-4.456;2022-10-31T17:22:52;16.62;76.42
74178;DHT22;62540;48.456;-4.456;2022-10-31T17:25:20;16.55;76.73
74178;DHT22;62540;48.456;-4.456;2022-10-31T17:27:47;16.52;76.47
74178;DHT22;62540;48.456;-4.456;2022-10-31T17:30:13;16.49;76.34
74178;DHT22;62540;48.456;-4.456;2022-10-31T17:32:40;16.40;76.34
74178;DHT22;62540;48.456;-4.456;2022-10-31T17:35:07;16.32;76.17
74178;DHT22;62540;48.456;-4.456;2022-10-31T17:37:34;16.22;76.20
74178;DHT22;62540;48.456;-4.456;2022-10-31T17:39:59;16.12;75.63
74178;DHT22;62540;48.456;-4.456;2022-10-31T17:42:25;16.05;76.15
74178;DHT22;62540;48.456;-4.456;2022-10-31T17:44:50;16.05;75.78
74178;DHT22;62540;48.456;-4.456;2022-10-31T17:47:15;16.03;75.80
74178;DHT22;62540;48.456;-4.456;2022-10-31T17:49:41;15.96;75.52
74178;DHT22;62540;48.456;-4.456;2022-10-31T17:52:06;15.83;75.09
74178;DHT22;62540;48.456;-4.456;2022-10-31T17:54:32;15.76;74.90
74178;DHT22;62540;48.456;-4.456;2022-10-31T17:56:57;15.73;74.98
74178;DHT22;62540;48.456;-4.456;2022-10-31T17:59:22;15.70;74.41